createdAt,value
2019-04-14T00:00:46.928Z,77.94
2019-04-14T00:01:47.705Z,77.08
2019-04-14T00:02:46.974Z,76.87
2019-04-14T00:03:47.605Z,76.66
2019-04-14T00:04:46.861Z,76.66
2019-04-14T00:05:47.263Z,76.25
2019-04-14T00:06:46.838Z,76.56
2019-04-14T00:07:47.186Z,76.66
2019-04-14T00:08:47.843Z,77.28
2019-04-14T00:09:47.503Z,77.22
2019-04-14T00:10:46.816Z,77.01
2019-04-14T00:11:48.006Z,76.90
2019-04-14T00:12:47.041Z,77.62
2019-04-14T00:13:47.829Z,77.66
2019-04-14T00:14:47.013Z,79.11
2019-04-14T00:15:49.093Z,79.11
2019-04-14T00:16:46.818Z,79.90
2019-04-14T00:17:47.840Z,80.34
2019-04-14T00:18:46.980Z,80.69
2019-04-14T00:19:47.810Z,81.41
2019-04-14T00:20:46.942Z,81.21
2019-04-14T00:21:47.607Z,81.21
2019-04-14T00:22:46.879Z,80.38
2019-04-14T00:23:47.733Z,78.69
2019-04-14T00:24:46.801Z,77.08
2019-04-14T00:25:47.669Z,76.15
2019-04-14T00:26:46.769Z,76.04
2019-04-14T00:27:47.569Z,76.15
2019-04-14T00:28:46.963Z,75.32
2019-04-14T00:29:47.845Z,75.29
2019-04-14T00:30:46.995Z,75.49
2019-04-14T00:31:47.652Z,75.63
2019-04-14T00:32:46.630Z,76.04
2019-04-14T00:33:47.564Z,76.15
2019-04-14T00:34:46.535Z,76.25
2019-04-14T00:35:47.149Z,76.15
2019-04-14T00:36:46.509Z,76.46
2019-04-14T00:37:46.673Z,75.94
2019-04-14T00:38:47.554Z,75.94
2019-04-14T00:39:46.640Z,76.25
2019-04-14T00:40:47.550Z,75.84
2019-04-14T00:41:51.977Z,75.43
2019-04-14T00:42:47.439Z,75.18
2019-04-14T00:43:46.429Z,74.98
2019-04-14T00:44:47.378Z,75.08
2019-04-14T00:45:52.715Z,74.98
2019-04-14T00:46:47.523Z,75.43
2019-04-14T00:47:57.184Z,75.73
2019-04-14T00:48:47.450Z,77.42
2019-04-14T00:49:46.368Z,80.14
2019-04-14T00:50:47.374Z,80.90
2019-04-14T00:51:46.367Z,81.41
2019-04-14T00:52:46.329Z,81.86
2019-04-14T00:53:46.725Z,81.66
2019-04-14T00:54:46.316Z,82.17
2019-04-14T00:55:46.622Z,82.42
2019-04-14T00:56:46.288Z,82.48
2019-04-14T00:57:46.395Z,79.11
2019-04-14T00:58:47.439Z,77.62
2019-04-14T00:59:46.426Z,75.94
2019-04-14T01:00:47.325Z,75.90
2019-04-14T01:01:46.232Z,75.70
2019-04-14T01:02:47.180Z,75.49
2019-04-14T01:03:46.212Z,75.18
2019-04-14T01:04:46.908Z,76.15
2019-04-14T01:05:46.184Z,75.94
2019-04-14T01:06:46.927Z,76.25
2019-04-14T01:07:46.163Z,75.73
2019-04-14T01:08:46.833Z,75.49
2019-04-14T01:09:46.437Z,75.08
2019-04-14T01:10:46.132Z,75.29
2019-04-14T01:11:46.499Z,75.49
2019-04-14T01:12:47.393Z,75.60
2019-04-14T01:13:46.312Z,75.18
2019-04-14T01:14:47.320Z,74.22
2019-04-14T01:15:54.871Z,75.35
2019-04-14T01:16:47.341Z,74.95
2019-04-14T01:17:46.189Z,74.46
2019-04-14T01:18:47.193Z,75.08
2019-04-14T01:19:46.072Z,74.74
2019-04-14T01:20:47.020Z,74.98
2019-04-14T01:21:46.007Z,74.84
2019-04-14T01:22:46.726Z,75.25
2019-04-14T01:23:45.990Z,75.46
2019-04-14T01:24:46.852Z,75.15
2019-04-14T01:25:45.974Z,74.22
2019-04-14T01:26:46.368Z,73.91
2019-04-14T01:27:45.944Z,73.47
2019-04-14T01:28:46.202Z,72.85
2019-04-14T01:29:45.923Z,72.44
2019-04-14T01:30:45.937Z,72.96
2019-04-14T01:31:47.036Z,73.47
2019-04-14T01:32:45.892Z,74.60
2019-04-14T01:33:46.876Z,73.68
2019-04-14T01:34:45.864Z,73.71
2019-04-14T01:35:46.703Z,72.64
2019-04-14T01:36:45.854Z,72.85
2019-04-14T01:37:46.458Z,72.75
2019-04-14T01:38:47.029Z,72.61
2019-04-14T01:39:46.073Z,72.30
2019-04-14T01:40:46.680Z,72.72
2019-04-14T01:41:45.794Z,71.89
2019-04-14T01:42:46.373Z,70.97
2019-04-14T01:43:45.769Z,72.81
2019-04-14T01:44:46.062Z,70.94
2019-04-14T01:45:58.092Z,71.45
2019-04-14T01:46:47.790Z,71.04
2019-04-14T01:47:46.718Z,70.94
2019-04-14T01:48:45.715Z,70.62
2019-04-14T01:49:46.604Z,71.45
2019-04-14T01:50:45.703Z,71.24
2019-04-14T01:51:46.359Z,71.48
2019-04-14T01:52:45.823Z,70.94
2019-04-14T01:53:46.691Z,70.62
2019-04-14T01:54:45.647Z,72.00
2019-04-14T01:55:46.244Z,72.81
2019-04-14T01:56:45.626Z,72.92
2019-04-14T01:57:45.950Z,72.61
2019-04-14T01:58:46.670Z,72.92
2019-04-14T01:59:46.028Z,72.00
2019-04-14T02:00:46.685Z,71.45
2019-04-14T02:01:45.741Z,70.83
2019-04-14T02:02:46.516Z,70.66
2019-04-14T02:03:45.633Z,71.86
2019-04-14T02:04:46.412Z,71.69
2019-04-14T02:05:45.529Z,69.56
2019-04-14T02:06:46.238Z,69.70
2019-04-14T02:07:45.510Z,69.87
2019-04-14T02:08:45.937Z,70.32
2019-04-14T02:09:46.741Z,69.80
2019-04-14T02:10:45.651Z,69.56
2019-04-14T02:11:46.632Z,69.60
2019-04-14T02:12:45.459Z,69.87
2019-04-14T02:13:46.457Z,69.36
2019-04-14T02:14:45.435Z,70.79
2019-04-14T02:15:46.463Z,70.32
2019-04-14T02:16:52.163Z,71.04
2019-04-14T02:17:46.401Z,71.14
2019-04-14T02:18:45.391Z,72.68
2019-04-14T02:19:46.003Z,73.02
2019-04-14T02:20:45.373Z,72.92
2019-04-14T02:21:45.685Z,72.92
2019-04-14T02:22:46.327Z,74.80
2019-04-14T02:23:45.427Z,75.22
2019-04-14T02:24:45.999Z,74.80
2019-04-14T02:25:45.327Z,75.15
2019-04-14T02:26:45.939Z,73.26
2019-04-14T02:27:45.292Z,73.47
2019-04-14T02:28:46.167Z,73.98
2019-04-14T02:29:45.272Z,72.85
2019-04-14T02:30:54.034Z,72.81
2019-04-14T02:32:17.969Z,73.13
2019-04-14T02:33:17.277Z,73.36
2019-04-14T02:34:21.968Z,72.92
2019-04-14T02:35:13.636Z,72.64
2019-04-14T02:37:22.960Z,73.57
2019-04-14T02:39:14.008Z,73.47
2019-04-14T02:42:26.034Z,73.13
2019-04-14T02:43:14.322Z,72.30
2019-04-14T02:44:15.837Z,73.02
2019-04-14T02:45:19.104Z,72.96
2019-04-14T02:46:10.387Z,73.36
2019-04-14T02:48:33.342Z,73.71
2019-04-14T02:49:11.221Z,75.05
2019-04-14T02:51:15.900Z,75.25
2019-04-14T02:52:14.377Z,74.84
2019-04-14T02:53:18.381Z,75.05
2019-04-14T02:54:13.821Z,74.74
2019-04-14T02:55:08.765Z,75.18
2019-04-14T02:56:16.390Z,74.43
2019-04-14T02:57:17.697Z,74.02
2019-04-14T03:00:21.626Z,73.81
2019-04-14T03:01:21.588Z,73.91
2019-04-14T03:02:27.048Z,74.43
2019-04-14T03:03:16.111Z,73.71
2019-04-14T03:04:17.011Z,74.74
2019-04-14T03:05:10.012Z,73.71
2019-04-14T03:07:16.623Z,73.68
2019-04-14T03:08:22.278Z,72.96
2019-04-14T03:10:10.973Z,73.26
2019-04-14T03:11:09.538Z,73.36
2019-04-14T03:12:13.956Z,73.57
2019-04-14T03:13:15.305Z,73.06
2019-04-14T03:15:11.300Z,73.36
2019-04-14T03:16:13.762Z,73.26
2019-04-14T03:18:24.473Z,73.68
2019-04-14T03:19:10.435Z,73.16
2019-04-14T03:21:13.443Z,73.68
2019-04-14T03:22:25.965Z,73.36
2019-04-14T03:23:19.163Z,73.16
2019-04-14T03:25:00.501Z,73.02
2019-04-14T03:26:05.071Z,72.72
2019-04-14T03:27:15.301Z,72.96
2019-04-14T03:28:06.991Z,71.79
2019-04-14T03:29:19.625Z,71.58
2019-04-14T03:30:34.020Z,71.45
2019-04-14T03:32:32.345Z,71.89
2019-04-14T03:33:55.788Z,71.24
2019-04-14T03:35:36.382Z,71.04
2019-04-14T03:36:52.886Z,71.14
2019-04-14T03:38:18.582Z,70.62
2019-04-14T03:39:17.854Z,69.90
2019-04-14T03:40:15.361Z,70.39
2019-04-14T03:41:17.243Z,69.49
2019-04-14T03:42:21.351Z,70.90
2019-04-14T03:43:28.314Z,70.01
2019-04-14T03:44:09.956Z,69.80
2019-04-14T03:45:14.293Z,69.87
2019-04-14T03:46:17.446Z,70.08
2019-04-14T03:47:13.509Z,70.94
2019-04-14T03:52:31.654Z,70.01
2019-04-14T03:53:18.869Z,69.26
2019-04-14T03:54:03.416Z,69.77
2019-04-14T03:55:01.065Z,68.54
2019-04-14T03:55:53.835Z,69.05
2019-04-14T03:56:46.330Z,68.64
2019-04-14T03:57:45.464Z,68.85
2019-04-14T03:58:44.459Z,68.43
2019-04-14T03:59:45.573Z,68.74
2019-04-14T04:00:44.396Z,69.05
2019-04-14T04:01:45.584Z,68.85
2019-04-14T04:02:44.513Z,68.43
2019-04-14T04:03:44.261Z,69.05
2019-04-14T04:04:44.499Z,67.82
2019-04-14T04:05:44.231Z,68.33
2019-04-14T04:06:44.355Z,68.33
2019-04-14T04:07:45.370Z,69.26
2019-04-14T04:08:44.208Z,69.53
2019-04-14T04:09:45.353Z,70.90
2019-04-14T04:10:44.361Z,71.11
2019-04-14T04:11:45.432Z,72.85
2019-04-14T04:12:44.405Z,73.71
2019-04-14T04:13:44.146Z,74.84
2019-04-14T04:14:44.268Z,76.31
2019-04-14T04:15:45.396Z,76.76
2019-04-14T04:16:44.110Z,78.72
2019-04-14T04:17:45.151Z,79.68
2019-04-14T04:18:55.753Z,80.09
2019-04-14T04:19:45.079Z,80.81
2019-04-14T04:20:44.067Z,80.71
2019-04-14T04:21:44.479Z,81.43
2019-04-14T04:22:44.045Z,81.33
2019-04-14T04:23:44.662Z,82.09
2019-04-14T04:24:44.025Z,82.29
2019-04-14T04:25:44.436Z,82.50
2019-04-14T04:26:45.049Z,82.70
2019-04-14T04:27:44.087Z,82.19
2019-04-14T04:28:45.095Z,80.13
2019-04-14T04:29:44.095Z,80.30
2019-04-14T04:30:44.922Z,80.40
2019-04-14T04:31:44.012Z,80.19
2019-04-14T04:32:44.792Z,80.91
2019-04-14T04:33:43.931Z,81.63
2019-04-14T04:34:44.548Z,81.84
2019-04-14T04:35:43.910Z,82.77
2019-04-14T04:36:44.206Z,82.56
2019-04-14T04:37:43.885Z,81.84
2019-04-14T04:38:44.255Z,82.40
2019-04-14T04:39:43.864Z,82.60
2019-04-14T04:40:44.035Z,83.28
2019-04-14T04:41:44.983Z,81.98
2019-04-14T04:42:43.831Z,81.02
2019-04-14T04:43:45.089Z,79.06
2019-04-14T04:44:44.168Z,78.51
2019-04-14T04:45:43.797Z,79.75
2019-04-14T04:46:43.887Z,76.66
2019-04-14T04:47:44.805Z,76.86
2019-04-14T04:48:51.330Z,76.14
2019-04-14T04:49:44.768Z,76.11
2019-04-14T04:50:43.746Z,75.70
2019-04-14T04:51:44.330Z,75.08
2019-04-14T04:52:43.727Z,75.90
2019-04-14T04:53:44.045Z,76.21
2019-04-14T04:54:44.904Z,74.98
2019-04-14T04:55:43.917Z,75.49
2019-04-14T04:56:44.791Z,74.87
2019-04-14T04:57:43.856Z,75.59
2019-04-14T04:58:43.657Z,74.67
2019-04-14T04:59:43.650Z,75.29
2019-04-14T05:00:44.816Z,76.11
2019-04-14T05:01:43.629Z,75.08
2019-04-14T05:02:43.875Z,75.08
2019-04-14T05:03:43.604Z,74.87
2019-04-14T05:04:43.901Z,75.39
2019-04-14T05:05:43.583Z,74.46
2019-04-14T05:06:43.786Z,74.98
2019-04-14T05:07:44.773Z,74.98
2019-04-14T05:08:43.568Z,74.87
2019-04-14T05:09:44.754Z,75.08
2019-04-14T05:10:43.655Z,75.25
2019-04-14T05:11:44.728Z,76.21
2019-04-14T05:12:43.658Z,75.80
2019-04-14T05:13:44.423Z,76.73
2019-04-14T05:14:43.556Z,77.65
2019-04-14T05:15:44.608Z,76.83
2019-04-14T05:16:44.024Z,76.83
2019-04-14T05:17:43.451Z,76.62
2019-04-14T05:18:44.116Z,76.11
2019-04-14T05:19:43.620Z,76.11
2019-04-14T05:20:44.152Z,76.07
2019-04-14T05:21:43.409Z,74.63
2019-04-14T05:22:43.962Z,74.84
2019-04-14T05:23:43.389Z,74.87
2019-04-14T05:24:44.039Z,75.04
2019-04-14T05:25:43.369Z,75.15
2019-04-14T05:26:43.820Z,75.56
2019-04-14T05:27:43.345Z,74.43
2019-04-14T05:28:43.860Z,74.63
2019-04-14T05:29:43.330Z,74.74
2019-04-14T05:30:43.636Z,73.30
2019-04-14T05:31:43.302Z,73.81
2019-04-14T05:32:43.530Z,74.67
2019-04-14T05:33:43.279Z,73.30
2019-04-14T05:34:43.365Z,74.12
2019-04-14T05:35:44.433Z,74.53
2019-04-14T05:36:43.313Z,73.61
2019-04-14T05:37:44.368Z,73.61
2019-04-14T05:38:43.222Z,73.47
2019-04-14T05:39:44.042Z,73.78
2019-04-14T05:40:43.201Z,72.96
2019-04-14T05:41:54.987Z,72.85
2019-04-14T05:42:45.041Z,72.85
2019-04-14T05:43:49.730Z,72.27
2019-04-14T05:44:44.821Z,72.44
2019-04-14T05:45:43.684Z,72.55
2019-04-14T05:46:43.135Z,72.24
2019-04-14T05:47:43.632Z,72.75
2019-04-14T05:48:43.120Z,72.85
2019-04-14T05:49:46.902Z,72.55
2019-04-14T05:50:44.368Z,72.96
2019-04-14T05:51:43.716Z,72.61
2019-04-14T05:52:43.077Z,71.83
2019-04-14T05:53:43.786Z,72.96
2019-04-14T05:54:43.049Z,72.24
2019-04-14T05:55:43.820Z,72.65
2019-04-14T05:56:43.031Z,72.24
2019-04-14T05:57:43.796Z,72.44
2019-04-14T05:58:43.023Z,72.75
2019-04-14T05:59:44.019Z,71.62
2019-04-14T06:00:43.734Z,71.79
2019-04-14T06:01:44.235Z,71.89
2019-04-14T06:02:44.082Z,71.45
2019-04-14T06:03:43.269Z,72.48
2019-04-14T06:04:43.891Z,71.14
2019-04-14T06:05:42.938Z,71.72
2019-04-14T06:06:42.921Z,70.18
2019-04-14T06:07:42.910Z,71.11
2019-04-14T06:08:42.905Z,70.80
2019-04-14T06:09:42.887Z,70.70
2019-04-14T06:10:42.876Z,70.42
2019-04-14T06:11:42.868Z,69.81
2019-04-14T06:12:42.855Z,69.81
2019-04-14T06:13:42.845Z,71.04
2019-04-14T06:14:42.835Z,70.73
2019-04-14T06:15:42.825Z,69.64
2019-04-14T06:16:42.811Z,70.56
2019-04-14T06:17:42.799Z,71.17
2019-04-14T06:18:42.792Z,71.38
2019-04-14T06:19:42.779Z,70.97
2019-04-14T06:20:42.770Z,72.61
2019-04-14T06:21:42.777Z,72.61
2019-04-14T06:22:42.746Z,73.33
2019-04-14T06:23:42.737Z,75.12
2019-04-14T06:24:42.733Z,75.52
2019-04-14T06:25:42.717Z,79.02
2019-04-14T06:26:42.711Z,79.98
2019-04-14T06:27:42.707Z,81.93
2019-04-14T06:28:42.683Z,82.65
2019-04-14T06:29:42.675Z,82.65
2019-04-14T06:30:42.662Z,83.83
2019-04-14T06:31:42.649Z,84.85
2019-04-14T06:32:42.642Z,85.98
2019-04-14T06:33:42.635Z,85.16
2019-04-14T06:34:42.619Z,85.78
2019-04-14T06:35:42.609Z,86.64
2019-04-14T06:36:42.592Z,87.46
2019-04-14T06:37:42.587Z,88.49
2019-04-14T06:38:42.580Z,89.01
2019-04-14T06:39:42.563Z,89.31
2019-04-14T06:40:42.568Z,89.38
2019-04-14T06:41:42.543Z,89.79
2019-04-14T06:42:42.542Z,89.22
2019-04-14T06:43:48.620Z,90.14
2019-04-14T06:44:43.515Z,90.24
2019-04-14T06:45:42.513Z,90.45
2019-04-14T06:46:42.500Z,90.75
2019-04-14T06:47:42.477Z,91.31
2019-04-14T06:48:42.475Z,91.58
2019-04-14T06:49:48.740Z,91.47
2019-04-14T06:50:46.241Z,91.78
2019-04-14T06:51:42.431Z,91.99
2019-04-14T06:52:42.463Z,92.20
2019-04-14T06:53:42.415Z,91.78
2019-04-14T06:54:42.404Z,91.38
2019-04-14T06:55:42.395Z,91.27
2019-04-14T06:56:42.374Z,90.75
2019-04-14T06:57:42.362Z,89.83
2019-04-14T06:58:42.353Z,89.42
2019-04-14T06:59:42.352Z,90.03
2019-04-14T07:00:42.334Z,90.34
2019-04-14T07:01:42.328Z,90.34
2019-04-14T07:02:42.315Z,91.06
2019-04-14T07:03:42.299Z,91.27
2019-04-14T07:04:42.296Z,91.11
2019-04-14T07:05:42.277Z,91.21
2019-04-14T07:06:42.274Z,92.24
2019-04-14T07:07:42.259Z,92.38
2019-04-14T07:08:42.247Z,92.49
2019-04-14T07:09:42.241Z,92.03
2019-04-14T07:10:42.228Z,92.80
2019-04-14T07:11:42.215Z,92.76
2019-04-14T07:12:43.143Z,93.06
2019-04-14T07:13:42.192Z,93.27
2019-04-14T07:14:42.179Z,93.27
2019-04-14T07:15:42.167Z,93.73
2019-04-14T07:16:42.155Z,93.41
2019-04-14T07:17:42.151Z,92.80
2019-04-14T07:18:42.137Z,92.86
2019-04-14T07:19:42.126Z,93.11
2019-04-14T07:20:42.114Z,92.86
2019-04-14T07:21:42.110Z,93.37
2019-04-14T07:22:42.095Z,93.06
2019-04-14T07:23:42.090Z,93.58
2019-04-14T07:24:42.072Z,93.74
2019-04-14T07:25:42.064Z,93.79
2019-04-14T07:26:42.047Z,93.64
2019-04-14T07:27:42.036Z,93.95
2019-04-14T07:28:42.034Z,93.33
2019-04-14T07:29:42.022Z,93.49
2019-04-14T07:30:42.003Z,93.29
2019-04-14T07:31:41.993Z,93.18
2019-04-14T07:32:41.982Z,92.63
2019-04-14T07:33:41.972Z,92.83
2019-04-14T07:34:41.962Z,92.83
2019-04-14T07:35:41.950Z,92.01
2019-04-14T07:36:41.942Z,92.32
2019-04-14T07:37:41.934Z,91.91
2019-04-14T07:38:41.918Z,91.60
2019-04-14T07:39:41.914Z,91.39
2019-04-14T07:40:41.906Z,92.16
2019-04-14T07:41:41.891Z,92.42
2019-04-14T07:42:41.876Z,91.60
2019-04-14T07:43:41.864Z,92.16
2019-04-14T07:44:41.863Z,91.53
2019-04-14T07:45:41.843Z,91.74
2019-04-14T07:46:41.837Z,91.85
2019-04-14T07:47:41.823Z,92.36
2019-04-14T07:48:41.814Z,91.91
2019-04-14T07:49:41.815Z,92.63
2019-04-14T07:50:41.789Z,92.83
2019-04-14T07:51:41.776Z,91.80
2019-04-14T07:52:41.766Z,92.11
2019-04-14T07:53:41.757Z,92.93
2019-04-14T07:54:41.742Z,92.32
2019-04-14T07:55:41.731Z,92.21
2019-04-14T07:56:41.722Z,92.52
2019-04-14T07:57:41.714Z,92.83
2019-04-14T07:58:41.696Z,92.21
2019-04-14T07:59:41.692Z,92.42
2019-04-14T08:00:41.683Z,92.42
2019-04-14T08:01:41.668Z,91.74
2019-04-14T08:02:41.658Z,92.16
2019-04-14T08:03:41.649Z,91.44
2019-04-14T08:04:41.637Z,91.38
2019-04-14T08:05:41.633Z,91.78
2019-04-14T08:06:41.665Z,91.89
2019-04-14T08:07:41.614Z,91.78
2019-04-14T08:08:41.600Z,91.52
2019-04-14T08:09:41.588Z,92.03
2019-04-14T08:10:41.570Z,92.30
2019-04-14T08:11:41.568Z,91.99
2019-04-14T08:12:41.552Z,92.10
2019-04-14T08:13:41.544Z,92.24
2019-04-14T08:14:41.536Z,92.55
2019-04-14T08:15:41.527Z,92.14
2019-04-14T08:16:41.517Z,92.55
2019-04-14T08:17:43.598Z,92.86
2019-04-14T08:18:41.481Z,92.34
2019-04-14T08:19:41.472Z,92.65
2019-04-14T08:20:41.470Z,92.34
2019-04-14T08:21:41.455Z,92.40
2019-04-14T08:22:41.454Z,92.55
2019-04-14T08:23:41.430Z,92.03
2019-04-14T08:24:41.427Z,92.34
2019-04-14T08:25:41.406Z,91.42
2019-04-14T08:26:41.397Z,91.72
2019-04-14T08:27:41.387Z,91.72
2019-04-14T08:28:41.376Z,91.52
2019-04-14T08:29:41.365Z,90.69
2019-04-14T08:30:41.357Z,90.39
2019-04-14T08:31:41.348Z,90.49
2019-04-14T08:32:41.343Z,91.06
2019-04-14T08:33:41.328Z,91.06
2019-04-14T08:34:41.329Z,90.66
2019-04-14T08:35:41.309Z,90.75
2019-04-14T08:36:41.295Z,91.23
2019-04-14T08:37:41.282Z,91.44
2019-04-14T08:38:41.271Z,91.33
2019-04-14T08:39:41.256Z,91.64
2019-04-14T08:40:41.256Z,91.44
2019-04-14T08:41:41.249Z,90.96
2019-04-14T08:42:41.227Z,91.53
2019-04-14T08:43:41.217Z,91.74
2019-04-14T08:44:41.216Z,91.29
2019-04-14T08:45:41.188Z,91.70
2019-04-14T08:46:41.189Z,92.21
2019-04-14T08:47:41.175Z,92.52
2019-04-14T08:48:41.156Z,92.38
2019-04-14T08:49:41.161Z,91.60
2019-04-14T08:50:41.139Z,91.35
2019-04-14T08:51:41.137Z,91.55
2019-04-14T08:52:41.121Z,91.25
2019-04-14T08:53:41.106Z,91.29
2019-04-14T08:54:41.109Z,90.57
2019-04-14T08:55:41.086Z,90.16
2019-04-14T08:56:41.078Z,90.16
2019-04-14T08:57:41.059Z,91.19
2019-04-14T08:58:41.051Z,91.45
2019-04-14T08:59:41.046Z,91.55
2019-04-14T09:00:41.034Z,91.45
2019-04-14T09:01:41.016Z,91.51
2019-04-14T09:02:41.008Z,91.47
2019-04-14T09:03:41.007Z,91.57
2019-04-14T09:04:40.986Z,91.63
2019-04-14T09:05:40.978Z,91.80
2019-04-14T09:06:41.040Z,91.59
2019-04-14T09:07:40.958Z,91.49
2019-04-14T09:08:40.945Z,90.05
2019-04-14T09:09:40.931Z,90.05
2019-04-14T09:10:40.931Z,90.01
2019-04-14T09:11:40.905Z,89.75
2019-04-14T09:12:40.914Z,90.30
2019-04-14T09:13:40.883Z,89.99
2019-04-14T09:14:40.875Z,89.58
2019-04-14T09:15:40.868Z,89.78
2019-04-14T09:16:40.848Z,90.16
2019-04-14T09:17:40.850Z,90.05
2019-04-14T09:18:40.835Z,88.94
2019-04-14T09:19:40.819Z,88.80
2019-04-14T09:20:51.624Z,87.43
2019-04-14T09:21:41.806Z,87.70
2019-04-14T09:22:40.789Z,87.61
2019-04-14T09:23:40.777Z,86.24
2019-04-14T09:24:40.779Z,86.36
2019-04-14T09:25:40.756Z,85.35
2019-04-14T09:26:40.742Z,85.24
2019-04-14T09:27:40.735Z,85.35
2019-04-14T09:28:40.724Z,85.35
2019-04-14T09:29:40.726Z,83.65
2019-04-14T09:30:40.710Z,84.41
2019-04-14T09:31:40.701Z,84.41
2019-04-14T09:32:40.682Z,85.12
2019-04-14T09:33:40.662Z,85.63
2019-04-14T09:34:40.658Z,84.65
2019-04-14T09:35:40.664Z,85.61
2019-04-14T09:36:40.633Z,85.85
2019-04-14T09:37:40.631Z,87.08
2019-04-14T09:38:40.633Z,87.32
2019-04-14T09:39:40.600Z,87.26
2019-04-14T09:40:40.594Z,87.71
2019-04-14T09:41:40.585Z,88.64
2019-04-14T09:42:40.571Z,89.25
2019-04-14T09:43:40.559Z,90.01
2019-04-14T09:44:40.586Z,90.62
2019-04-14T09:45:40.539Z,91.08
2019-04-14T09:46:40.524Z,91.49
2019-04-14T09:47:40.516Z,91.18
2019-04-14T09:48:42.839Z,92.21
2019-04-14T09:49:40.492Z,92.10
2019-04-14T09:50:40.481Z,92.57
2019-04-14T09:51:40.993Z,92.47
2019-04-14T09:52:40.470Z,92.43
2019-04-14T09:53:40.465Z,91.91
2019-04-14T09:54:40.438Z,91.93
2019-04-14T09:55:40.431Z,90.03
2019-04-14T09:56:40.414Z,89.47
2019-04-14T09:57:40.405Z,87.84
2019-04-14T09:58:40.395Z,85.44
2019-04-14T09:59:40.383Z,85.71
2019-04-14T10:00:40.398Z,86.18
2019-04-14T10:01:40.368Z,85.49
2019-04-14T10:02:40.348Z,86.02
2019-04-14T10:03:40.338Z,85.69
2019-04-14T10:04:40.331Z,85.06
2019-04-14T10:05:40.316Z,79.71
2019-04-14T10:06:41.008Z,80.80
2019-04-14T10:07:40.298Z,81.57
2019-04-14T10:08:40.282Z,84.06
2019-04-14T10:09:40.270Z,84.12
2019-04-14T10:10:40.261Z,84.28
2019-04-14T10:11:48.526Z,83.67
2019-04-14T10:12:41.242Z,83.26
2019-04-14T10:13:40.225Z,84.08
2019-04-14T10:14:40.221Z,83.63
2019-04-14T10:15:40.210Z,85.02
2019-04-14T10:16:40.199Z,84.64
2019-04-14T10:17:40.192Z,83.21
2019-04-14T10:18:40.192Z,81.88
2019-04-14T10:19:40.169Z,79.89
2019-04-14T10:20:40.171Z,81.52
2019-04-14T10:21:40.159Z,81.04
2019-04-14T10:22:40.134Z,83.12
2019-04-14T10:23:40.118Z,83.78
2019-04-14T10:24:40.110Z,84.53
2019-04-14T10:25:40.104Z,86.00
2019-04-14T10:26:40.092Z,87.43
2019-04-14T10:27:40.084Z,87.43
2019-04-14T10:28:40.069Z,88.45
2019-04-14T10:29:40.065Z,87.23
2019-04-14T10:30:40.037Z,86.44
2019-04-14T10:31:40.029Z,87.16
2019-04-14T10:32:40.021Z,87.98
2019-04-14T10:33:40.019Z,88.18
2019-04-14T10:34:40.007Z,88.45
2019-04-14T10:35:39.985Z,87.70
2019-04-14T10:36:39.976Z,87.90
2019-04-14T10:37:39.964Z,88.06
2019-04-14T10:38:39.955Z,87.14
2019-04-14T10:39:39.956Z,85.65
2019-04-14T10:40:39.931Z,83.75
2019-04-14T10:41:39.923Z,85.79
2019-04-14T10:42:39.909Z,86.41
2019-04-14T10:43:39.906Z,86.04
2019-04-14T10:44:39.922Z,86.63
2019-04-14T10:45:39.876Z,87.35
2019-04-14T10:46:39.867Z,88.78
2019-04-14T10:47:39.852Z,88.43
2019-04-14T10:48:39.845Z,88.12
2019-04-14T10:49:39.831Z,88.53
2019-04-14T10:50:39.822Z,87.61
2019-04-14T10:51:39.811Z,88.33
2019-04-14T10:52:39.797Z,88.43
2019-04-14T10:53:39.791Z,87.77
2019-04-14T10:54:39.779Z,86.96
2019-04-14T10:55:39.764Z,87.37
2019-04-14T10:56:39.750Z,87.16
2019-04-14T10:57:39.742Z,87.37
2019-04-14T10:58:39.747Z,87.37
2019-04-14T10:59:39.736Z,88.49
2019-04-14T11:00:39.711Z,88.00
2019-04-14T11:01:39.700Z,87.14
2019-04-14T11:02:39.690Z,86.18
2019-04-14T11:03:39.680Z,84.96
2019-04-14T11:04:39.666Z,84.98
2019-04-14T11:05:39.665Z,83.21
2019-04-14T11:06:39.644Z,83.58
2019-04-14T11:07:39.632Z,82.32
2019-04-14T11:08:39.623Z,83.20
2019-04-14T11:09:39.617Z,82.71
2019-04-14T11:10:39.602Z,78.24
2019-04-14T11:11:39.610Z,78.06
2019-04-14T11:12:39.577Z,78.40
2019-04-14T11:13:39.573Z,77.72
2019-04-14T11:14:39.568Z,73.19
2019-04-14T11:15:39.550Z,73.39
2019-04-14T11:16:39.538Z,71.84
2019-04-14T11:17:39.526Z,66.18
2019-04-14T11:18:39.522Z,66.12
2019-04-14T11:19:39.505Z,69.15
2019-04-14T11:20:39.500Z,67.74
2019-04-14T11:21:42.826Z,65.47
2019-04-14T11:22:39.496Z,65.88
2019-04-14T11:23:39.459Z,62.63
2019-04-14T11:24:39.453Z,65.25
2019-04-14T11:25:39.445Z,59.46
2019-04-14T11:26:39.431Z,61.67
2019-04-14T11:27:39.419Z,58.61
2019-04-14T11:28:39.412Z,60.19
2019-04-14T11:29:39.407Z,61.33
2019-04-14T11:30:39.395Z,60.18
2019-04-14T11:31:39.377Z,64.50
2019-04-14T11:32:39.368Z,60.52
2019-04-14T11:33:39.357Z,58.62
2019-04-14T11:34:39.346Z,60.47
2019-04-14T11:35:39.342Z,57.39
2019-04-14T11:36:39.324Z,60.91
2019-04-14T11:37:39.311Z,65.71
2019-04-14T11:38:39.317Z,68.24
2019-04-14T11:39:39.294Z,64.64
2019-04-14T11:40:39.280Z,59.58
2019-04-14T11:41:39.281Z,62.92
2019-04-14T11:42:51.638Z,56.71
2019-04-14T11:43:40.260Z,62.67
2019-04-14T11:44:39.241Z,55.57
2019-04-14T11:45:39.278Z,56.45
2019-04-14T11:46:39.229Z,54.27
2019-04-14T11:47:39.218Z,52.37
2019-04-14T11:48:39.205Z,55.32
2019-04-14T11:49:39.199Z,58.18
2019-04-14T11:50:39.191Z,58.18
2019-04-14T11:51:39.173Z,53.85
2019-04-14T11:52:39.163Z,56.35
2019-04-14T11:53:39.156Z,51.59
2019-04-14T11:54:39.141Z,48.67
2019-04-14T11:55:39.128Z,47.94
2019-04-14T11:56:39.120Z,50.34
2019-04-14T11:57:39.114Z,50.62
2019-04-14T11:58:39.105Z,52.47
2019-04-14T11:59:39.093Z,47.56
2019-04-14T12:00:39.085Z,50.63
2019-04-14T12:01:39.080Z,48.19
2019-04-14T12:02:39.067Z,50.26
2019-04-14T12:03:39.074Z,52.22
2019-04-14T12:04:39.051Z,47.24
2019-04-14T12:05:39.037Z,46.84
2019-04-14T12:06:39.036Z,50.29
2019-04-14T12:07:39.013Z,51.97
2019-04-14T12:08:39.011Z,50.34
2019-04-14T12:09:39.002Z,50.72
2019-04-14T12:10:39.015Z,49.17
2019-04-14T12:11:38.974Z,45.68
2019-04-14T12:12:38.964Z,48.21
2019-04-14T12:13:38.960Z,47.22
2019-04-14T12:14:38.949Z,48.07
2019-04-14T12:15:38.935Z,47.65
2019-04-14T12:16:38.926Z,43.93
2019-04-14T12:17:38.916Z,46.94
2019-04-14T12:18:38.920Z,44.75
2019-04-14T12:19:38.913Z,44.39
2019-04-14T12:20:38.885Z,46.14
2019-04-14T12:21:38.879Z,47.76
2019-04-14T12:22:38.886Z,45.50
2019-04-14T12:23:38.871Z,43.32
2019-04-14T12:24:38.860Z,44.78
2019-04-14T12:25:38.843Z,42.99
2019-04-14T12:26:38.846Z,43.23
2019-04-14T12:27:39.734Z,41.67
2019-04-14T12:28:38.839Z,45.43
2019-04-14T12:29:39.069Z,43.90
2019-04-14T12:30:39.878Z,46.98
2019-04-14T12:31:39.611Z,46.99
2019-04-14T12:32:38.783Z,43.15
2019-04-14T12:33:38.760Z,44.67
2019-04-14T12:34:38.751Z,43.13
2019-04-14T12:35:38.754Z,44.65
2019-04-14T12:36:38.731Z,43.47
2019-04-14T12:37:38.718Z,44.76
2019-04-14T12:38:38.716Z,42.10
2019-04-14T12:39:38.705Z,43.19
2019-04-14T12:40:38.878Z,44.23
2019-04-14T12:41:39.756Z,43.55
2019-04-14T12:42:38.670Z,41.50
2019-04-14T12:43:38.667Z,43.12
2019-04-14T12:44:38.655Z,47.58
2019-04-14T12:45:38.642Z,49.76
2019-04-14T12:46:38.634Z,49.73
2019-04-14T12:47:40.289Z,50.93
2019-04-14T12:48:38.611Z,50.93
2019-04-14T12:49:38.615Z,51.56
2019-04-14T12:50:38.623Z,50.66
2019-04-14T12:51:38.588Z,52.01
2019-04-14T12:52:38.589Z,52.47
2019-04-14T12:53:38.564Z,51.18
2019-04-14T12:54:38.559Z,52.57
2019-04-14T12:55:38.557Z,52.57
2019-04-14T12:56:38.531Z,49.46
2019-04-14T12:57:38.520Z,46.95
2019-04-14T12:58:38.517Z,47.43
2019-04-14T12:59:38.499Z,48.28
2019-04-14T13:00:38.490Z,48.44
2019-04-14T13:01:38.485Z,50.60
2019-04-14T13:02:38.472Z,51.54
2019-04-14T13:03:38.458Z,52.67
2019-04-14T13:04:38.448Z,54.23
2019-04-14T13:05:38.436Z,54.48
2019-04-14T13:06:38.428Z,54.71
2019-04-14T13:07:38.419Z,55.14
2019-04-14T13:08:38.433Z,55.29
2019-04-14T13:09:38.401Z,55.22
2019-04-14T13:10:38.385Z,56.33
2019-04-14T13:11:38.377Z,56.26
2019-04-14T13:12:38.413Z,56.59
2019-04-14T13:13:38.353Z,57.70